Terminal Aerodrome Forecast
Issued by NWS

Home | Current Version | Previous Version | Text Only | Print | Product List | Glossary On
Versions: 1 2 3 4 5 6 7 8 9 10 11 12
230
FTUS46 KSEW 212320
TAFOLM
TAF
KOLM 212320Z 2200/2224 28010KT P6SM SCT050 BKN150
     FM220500 00000KT P6SM SCT050 SCT200
     FM221200 VRB03KT P6SM SCT002 SCT250
      TEMPO 2212/2216 1SM BR BKN002
     FM221700 36007KT P6SM SCT250=

USA.gov is the U.S. government's official web portal to all federal, state and local government web resources and services.